sensor_id;sensor_type;location;lat;lon;timestamp;P1;durP1;ratioP1;P2;durP2;ratioP2
5257;SDS011;2651;51.594;9.928;2024-03-22T00:00:23;7.50;;;5.65;;
5257;SDS011;2651;51.594;9.928;2024-03-22T00:01:24;8.60;;;4.90;;
5257;SDS011;2651;51.594;9.928;2024-03-22T00:02:25;8.87;;;5.87;;
5257;SDS011;2651;51.594;9.928;2024-03-22T00:03:25;9.00;;;4.90;;
5257;SDS011;2651;51.594;9.928;2024-03-22T00:04:26;7.88;;;5.00;;
5257;SDS011;2651;51.594;9.928;2024-03-22T00:05:27;8.67;;;5.13;;
5257;SDS011;2651;51.594;9.928;2024-03-22T00:06:28;6.60;;;5.43;;
5257;SDS011;2651;51.594;9.928;2024-03-22T00:07:29;8.90;;;5.20;;
5257;SDS011;2651;51.594;9.928;2024-03-22T00:08:29;7.60;;;5.47;;
5257;SDS011;2651;51.594;9.928;2024-03-22T00:09:30;8.83;;;5.57;;
5257;SDS011;2651;51.594;9.928;2024-03-22T00:10:31;8.57;;;5.60;;
5257;SDS011;2651;51.594;9.928;2024-03-22T00:11:32;9.90;;;5.50;;
5257;SDS011;2651;51.594;9.928;2024-03-22T00:12:33;8.90;;;5.07;;
5257;SDS011;2651;51.594;9.928;2024-03-22T00:13:33;8.40;;;6.03;;
5257;SDS011;2651;51.594;9.928;2024-03-22T00:14:34;7.13;;;5.37;;
5257;SDS011;2651;51.594;9.928;2024-03-22T00:15:35;8.10;;;5.53;;
5257;SDS011;2651;51.594;9.928;2024-03-22T00:16:35;9.37;;;5.33;;
5257;SDS011;2651;51.594;9.928;2024-03-22T00:17:37;8.50;;;5.05;;
5257;SDS011;2651;51.594;9.928;2024-03-22T00:18:38;6.47;;;4.90;;
5257;SDS011;2651;51.594;9.928;2024-03-22T00:19:39;7.43;;;5.07;;
5257;SDS011;2651;51.594;9.928;2024-03-22T00:20:40;10.53;;;4.87;;
5257;SDS011;2651;51.594;9.928;2024-03-22T00:21:40;11.27;;;6.03;;
5257;SDS011;2651;51.594;9.928;2024-03-22T00:22:41;9.70;;;5.73;;
5257;SDS011;2651;51.594;9.928;2024-03-22T00:23:43;10.67;;;6.00;;
5257;SDS011;2651;51.594;9.928;2024-03-22T00:24:45;8.52;;;4.93;;
5257;SDS011;2651;51.594;9.928;2024-03-22T00:25:45;8.80;;;5.70;;
5257;SDS011;2651;51.594;9.928;2024-03-22T00:26:46;8.93;;;5.73;;
5257;SDS011;2651;51.594;9.928;2024-03-22T00:27:47;7.40;;;5.20;;
5257;SDS011;2651;51.594;9.928;2024-03-22T00:28:48;6.57;;;4.87;;
5257;SDS011;2651;51.594;9.928;2024-03-22T00:29:49;10.60;;;5.68;;
5257;SDS011;2651;51.594;9.928;2024-03-22T00:30:50;7.10;;;5.10;;
5257;SDS011;2651;51.594;9.928;2024-03-22T00:31:50;8.63;;;5.60;;
5257;SDS011;2651;51.594;9.928;2024-03-22T00:32:51;11.70;;;6.23;;
5257;SDS011;2651;51.594;9.928;2024-03-22T00:33:52;5.67;;;4.60;;
5257;SDS011;2651;51.594;9.928;2024-03-22T00:34:53;15.00;;;5.83;;
5257;SDS011;2651;51.594;9.928;2024-03-22T00:35:53;8.50;;;5.60;;
5257;SDS011;2651;51.594;9.928;2024-03-22T00:36:54;9.93;;;5.20;;
5257;SDS011;2651;51.594;9.928;2024-03-22T00:37:55;8.47;;;5.30;;
5257;SDS011;2651;51.594;9.928;2024-03-22T00:38:56;6.97;;;4.93;;
5257;SDS011;2651;51.594;9.928;2024-03-22T00:39:57;10.00;;;5.78;;
5257;SDS011;2651;51.594;9.928;2024-03-22T00:40:58;9.30;;;5.47;;
5257;SDS011;2651;51.594;9.928;2024-03-22T00:41:58;9.53;;;5.30;;
5257;SDS011;2651;51.594;9.928;2024-03-22T00:42:59;7.85;;;5.28;;
5257;SDS011;2651;51.594;9.928;2024-03-22T00:44:00;7.83;;;5.73;;
5257;SDS011;2651;51.594;9.928;2024-03-22T00:45:01;8.17;;;5.03;;
5257;SDS011;2651;51.594;9.928;2024-03-22T00:46:02;6.40;;;4.40;;
5257;SDS011;2651;51.594;9.928;2024-03-22T00:47:03;9.97;;;5.00;;
5257;SDS011;2651;51.594;9.928;2024-03-22T00:48:04;8.87;;;5.40;;
5257;SDS011;2651;51.594;9.928;2024-03-22T00:49:05;8.23;;;5.45;;
5257;SDS011;2651;51.594;9.928;2024-03-22T00:50:06;7.27;;;5.40;;
5257;SDS011;2651;51.594;9.928;2024-03-22T00:51:07;8.25;;;5.28;;
5257;SDS011;2651;51.594;9.928;2024-03-22T00:52:08;7.70;;;5.13;;
5257;SDS011;2651;51.594;9.928;2024-03-22T00:53:08;10.17;;;5.50;;
5257;SDS011;2651;51.594;9.928;2024-03-22T00:54:10;8.73;;;5.47;;
5257;SDS011;2651;51.594;9.928;2024-03-22T00:55:11;6.20;;;4.67;;
5257;SDS011;2651;51.594;9.928;2024-03-22T00:56:11;10.43;;;4.83;;
5257;SDS011;2651;51.594;9.928;2024-03-22T00:57:12;10.30;;;5.73;;
5257;SDS011;2651;51.594;9.928;2024-03-22T00:58:13;7.03;;;5.30;;
5257;SDS011;2651;51.594;9.928;2024-03-22T00:59:13;7.57;;;5.23;;
5257;SDS011;2651;51.594;9.928;2024-03-22T01:00:15;6.20;;;4.37;;
5257;SDS011;2651;51.594;9.928;2024-03-22T01:01:16;10.55;;;5.22;;
5257;SDS011;2651;51.594;9.928;2024-03-22T01:02:17;7.93;;;4.90;;
5257;SDS011;2651;51.594;9.928;2024-03-22T01:03:18;6.30;;;5.47;;
5257;SDS011;2651;51.594;9.928;2024-03-22T01:04:19;14.27;;;5.60;;
5257;SDS011;2651;51.594;9.928;2024-03-22T01:05:19;9.07;;;5.60;;
5257;SDS011;2651;51.594;9.928;2024-03-22T01:06:20;8.50;;;5.90;;
5257;SDS011;2651;51.594;9.928;2024-03-22T01:07:25;8.23;;;5.72;;
5257;SDS011;2651;51.594;9.928;2024-03-22T01:08:25;9.53;;;5.43;;
5257;SDS011;2651;51.594;9.928;2024-03-22T01:09:26;8.07;;;5.03;;
5257;SDS011;2651;51.594;9.928;2024-03-22T01:10:27;11.70;;;6.47;;
5257;SDS011;2651;51.594;9.928;2024-03-22T01:11:28;7.20;;;4.80;;
5257;SDS011;2651;51.594;9.928;2024-03-22T01:12:29;6.45;;;4.70;;
5257;SDS011;2651;51.594;9.928;2024-03-22T01:13:31;9.32;;;5.90;;
5257;SDS011;2651;51.594;9.928;2024-03-22T01:14:31;9.07;;;5.23;;
5257;SDS011;2651;51.594;9.928;2024-03-22T01:15:32;5.60;;;4.50;;
5257;SDS011;2651;51.594;9.928;2024-03-22T01:16:33;9.60;;;5.03;;
5257;SDS011;2651;51.594;9.928;2024-03-22T01:17:34;9.20;;;5.03;;
5257;SDS011;2651;51.594;9.928;2024-03-22T01:18:35;14.90;;;5.40;;
5257;SDS011;2651;51.594;9.928;2024-03-22T01:19:36;9.73;;;5.30;;
5257;SDS011;2651;51.594;9.928;2024-03-22T01:20:37;8.80;;;5.67;;
5257;SDS011;2651;51.594;9.928;2024-03-22T01:21:38;10.40;;;5.82;;
5257;SDS011;2651;51.594;9.928;2024-03-22T01:22:38;10.83;;;5.70;;
5257;SDS011;2651;51.594;9.928;2024-03-22T01:23:40;7.75;;;5.30;;
5257;SDS011;2651;51.594;9.928;2024-03-22T01:24:41;8.03;;;6.10;;
5257;SDS011;2651;51.594;9.928;2024-03-22T01:25:41;8.60;;;5.23;;
5257;SDS011;2651;51.594;9.928;2024-03-22T01:26:42;12.20;;;5.47;;
5257;SDS011;2651;51.594;9.928;2024-03-22T01:27:43;10.97;;;5.90;;
5257;SDS011;2651;51.594;9.928;2024-03-22T01:28:44;7.93;;;5.73;;
5257;SDS011;2651;51.594;9.928;2024-03-22T01:29:45;10.77;;;5.50;;
5257;SDS011;2651;51.594;9.928;2024-03-22T01:30:47;10.25;;;4.72;;
5257;SDS011;2651;51.594;9.928;2024-03-22T01:31:48;8.10;;;5.67;;
5257;SDS011;2651;51.594;9.928;2024-03-22T01:32:49;8.32;;;5.63;;
5257;SDS011;2651;51.594;9.928;2024-03-22T01:33:49;8.30;;;5.43;;
5257;SDS011;2651;51.594;9.928;2024-03-22T01:34:50;9.40;;;5.80;;
5257;SDS011;2651;51.594;9.928;2024-03-22T01:35:51;8.27;;;5.07;;
5257;SDS011;2651;51.594;9.928;2024-03-22T01:36:52;10.73;;;5.97;;
5257;SDS011;2651;51.594;9.928;2024-03-22T01:37:52;7.40;;;5.27;;
5257;SDS011;2651;51.594;9.928;2024-03-22T01:38:53;6.57;;;5.07;;
5257;SDS011;2651;51.594;9.928;2024-03-22T01:39:54;8.87;;;5.20;;
5257;SDS011;2651;51.594;9.928;2024-03-22T01:40:54;8.20;;;5.33;;
5257;SDS011;2651;51.594;9.928;2024-03-22T01:41:55;8.53;;;4.70;;
5257;SDS011;2651;51.594;9.928;2024-03-22T01:42:56;10.00;;;5.15;;
5257;SDS011;2651;51.594;9.928;2024-03-22T01:43:58;7.72;;;4.70;;
5257;SDS011;2651;51.594;9.928;2024-03-22T01:44:58;6.78;;;4.82;;
5257;SDS011;2651;51.594;9.928;2024-03-22T01:45:59;7.97;;;5.13;;
5257;SDS011;2651;51.594;9.928;2024-03-22T01:47:00;8.03;;;5.17;;
5257;SDS011;2651;51.594;9.928;2024-03-22T01:48:02;7.00;;;4.85;;
5257;SDS011;2651;51.594;9.928;2024-03-22T01:49:04;8.98;;;5.60;;
5257;SDS011;2651;51.594;9.928;2024-03-22T01:50:04;9.50;;;6.47;;
5257;SDS011;2651;51.594;9.928;2024-03-22T01:51:07;7.80;;;5.20;;
5257;SDS011;2651;51.594;9.928;2024-03-22T01:52:09;7.38;;;4.97;;
5257;SDS011;2651;51.594;9.928;2024-03-22T01:53:10;12.33;;;5.87;;
5257;SDS011;2651;51.594;9.928;2024-03-22T01:54:11;9.97;;;5.97;;
5257;SDS011;2651;51.594;9.928;2024-03-22T01:55:12;7.17;;;5.30;;
5257;SDS011;2651;51.594;9.928;2024-03-22T01:56:12;10.07;;;5.97;;
5257;SDS011;2651;51.594;9.928;2024-03-22T01:57:13;8.83;;;5.30;;
5257;SDS011;2651;51.594;9.928;2024-03-22T01:58:14;12.70;;;5.33;;
5257;SDS011;2651;51.594;9.928;2024-03-22T01:59:16;10.48;;;6.47;;
5257;SDS011;2651;51.594;9.928;2024-03-22T02:00:18;9.63;;;5.75;;
5257;SDS011;2651;51.594;9.928;2024-03-22T02:01:19;13.55;;;6.28;;
5257;SDS011;2651;51.594;9.928;2024-03-22T02:02:20;9.10;;;5.47;;
5257;SDS011;2651;51.594;9.928;2024-03-22T02:03:21;11.10;;;6.40;;
5257;SDS011;2651;51.594;9.928;2024-03-22T02:04:22;13.13;;;6.97;;
5257;SDS011;2651;51.594;9.928;2024-03-22T02:05:22;10.97;;;6.40;;
5257;SDS011;2651;51.594;9.928;2024-03-22T02:06:24;8.40;;;5.43;;
5257;SDS011;2651;51.594;9.928;2024-03-22T02:07:27;8.20;;;5.57;;
5257;SDS011;2651;51.594;9.928;2024-03-22T02:08:30;7.85;;;5.72;;
5257;SDS011;2651;51.594;9.928;2024-03-22T02:09:31;9.00;;;6.10;;
5257;SDS011;2651;51.594;9.928;2024-03-22T02:10:31;8.87;;;6.00;;
5257;SDS011;2651;51.594;9.928;2024-03-22T02:11:32;11.30;;;6.10;;
5257;SDS011;2651;51.594;9.928;2024-03-22T02:12:33;9.87;;;6.07;;
5257;SDS011;2651;51.594;9.928;2024-03-22T02:13:34;8.65;;;5.38;;
5257;SDS011;2651;51.594;9.928;2024-03-22T02:14:35;10.00;;;5.30;;
5257;SDS011;2651;51.594;9.928;2024-03-22T02:15:36;8.90;;;5.93;;
5257;SDS011;2651;51.594;9.928;2024-03-22T02:16:39;9.40;;;5.40;;
5257;SDS011;2651;51.594;9.928;2024-03-22T02:17:40;11.25;;;6.30;;
5257;SDS011;2651;51.594;9.928;2024-03-22T02:18:41;8.70;;;5.73;;
5257;SDS011;2651;51.594;9.928;2024-03-22T02:19:42;9.13;;;5.10;;
5257;SDS011;2651;51.594;9.928;2024-03-22T02:20:42;8.67;;;5.73;;
5257;SDS011;2651;51.594;9.928;2024-03-22T02:21:43;8.27;;;5.67;;
5257;SDS011;2651;51.594;9.928;2024-03-22T02:22:44;9.33;;;5.97;;
5257;SDS011;2651;51.594;9.928;2024-03-22T02:23:44;10.60;;;5.63;;
5257;SDS011;2651;51.594;9.928;2024-03-22T02:24:45;10.20;;;6.20;;
5257;SDS011;2651;51.594;9.928;2024-03-22T02:25:46;9.20;;;5.77;;
5257;SDS011;2651;51.594;9.928;2024-03-22T02:26:47;10.37;;;5.80;;
5257;SDS011;2651;51.594;9.928;2024-03-22T02:27:47;8.33;;;5.67;;
5257;SDS011;2651;51.594;9.928;2024-03-22T02:28:50;10.80;;;5.90;;
5257;SDS011;2651;51.594;9.928;2024-03-22T02:29:51;12.63;;;5.90;;
5257;SDS011;2651;51.594;9.928;2024-03-22T02:30:52;12.13;;;6.80;;
5257;SDS011;2651;51.594;9.928;2024-03-22T02:31:53;12.30;;;6.50;;
5257;SDS011;2651;51.594;9.928;2024-03-22T02:32:53;10.30;;;6.30;;
5257;SDS011;2651;51.594;9.928;2024-03-22T02:33:54;10.37;;;6.00;;
5257;SDS011;2651;51.594;9.928;2024-03-22T02:34:55;10.53;;;6.27;;
5257;SDS011;2651;51.594;9.928;2024-03-22T02:35:56;11.73;;;5.90;;
5257;SDS011;2651;51.594;9.928;2024-03-22T02:36:57;8.13;;;5.38;;
5257;SDS011;2651;51.594;9.928;2024-03-22T02:37:57;11.57;;;6.33;;
5257;SDS011;2651;51.594;9.928;2024-03-22T02:38:59;10.57;;;6.10;;
5257;SDS011;2651;51.594;9.928;2024-03-22T02:39:59;11.70;;;6.70;;
5257;SDS011;2651;51.594;9.928;2024-03-22T02:41:00;10.87;;;6.40;;
5257;SDS011;2651;51.594;9.928;2024-03-22T02:42:01;9.00;;;6.07;;
5257;SDS011;2651;51.594;9.928;2024-03-22T02:43:02;14.03;;;6.00;;
5257;SDS011;2651;51.594;9.928;2024-03-22T02:44:02;10.83;;;7.13;;
5257;SDS011;2651;51.594;9.928;2024-03-22T02:45:03;9.60;;;6.07;;
5257;SDS011;2651;51.594;9.928;2024-03-22T02:46:04;16.67;;;7.53;;
5257;SDS011;2651;51.594;9.928;2024-03-22T02:47:05;12.87;;;7.10;;
5257;SDS011;2651;51.594;9.928;2024-03-22T02:48:06;9.93;;;6.90;;
5257;SDS011;2651;51.594;9.928;2024-03-22T02:49:07;11.63;;;6.95;;
5257;SDS011;2651;51.594;9.928;2024-03-22T02:50:08;11.13;;;6.70;;
5257;SDS011;2651;51.594;9.928;2024-03-22T02:51:09;12.60;;;6.80;;
5257;SDS011;2651;51.594;9.928;2024-03-22T02:52:09;12.27;;;6.73;;
5257;SDS011;2651;51.594;9.928;2024-03-22T02:53:10;13.97;;;7.93;;
5257;SDS011;2651;51.594;9.928;2024-03-22T02:54:11;10.87;;;6.47;;
5257;SDS011;2651;51.594;9.928;2024-03-22T02:55:12;12.47;;;7.07;;
5257;SDS011;2651;51.594;9.928;2024-03-22T02:56:12;10.10;;;5.90;;
5257;SDS011;2651;51.594;9.928;2024-03-22T02:57:13;13.90;;;6.63;;
5257;SDS011;2651;51.594;9.928;2024-03-22T02:58:14;12.10;;;7.17;;
5257;SDS011;2651;51.594;9.928;2024-03-22T02:59:14;10.70;;;6.73;;
5257;SDS011;2651;51.594;9.928;2024-03-22T03:00:15;12.63;;;6.90;;
5257;SDS011;2651;51.594;9.928;2024-03-22T03:01:16;12.97;;;6.63;;
5257;SDS011;2651;51.594;9.928;2024-03-22T03:02:17;15.57;;;7.53;;
5257;SDS011;2651;51.594;9.928;2024-03-22T03:03:17;14.40;;;7.97;;
5257;SDS011;2651;51.594;9.928;2024-03-22T03:04:18;15.13;;;8.30;;
5257;SDS011;2651;51.594;9.928;2024-03-22T03:05:19;12.50;;;7.10;;
5257;SDS011;2651;51.594;9.928;2024-03-22T03:06:20;11.97;;;6.63;;
5257;SDS011;2651;51.594;9.928;2024-03-22T03:07:21;11.70;;;6.93;;
5257;SDS011;2651;51.594;9.928;2024-03-22T03:08:21;16.27;;;7.97;;
5257;SDS011;2651;51.594;9.928;2024-03-22T03:09:22;17.27;;;7.50;;
5257;SDS011;2651;51.594;9.928;2024-03-22T03:10:23;14.60;;;7.83;;
5257;SDS011;2651;51.594;9.928;2024-03-22T03:11:23;14.97;;;7.63;;
5257;SDS011;2651;51.594;9.928;2024-03-22T03:12:24;17.07;;;7.30;;
5257;SDS011;2651;51.594;9.928;2024-03-22T03:13:25;12.47;;;7.10;;
5257;SDS011;2651;51.594;9.928;2024-03-22T03:14:26;21.42;;;7.15;;
5257;SDS011;2651;51.594;9.928;2024-03-22T03:15:27;13.47;;;7.27;;
5257;SDS011;2651;51.594;9.928;2024-03-22T03:16:29;14.65;;;8.45;;
5257;SDS011;2651;51.594;9.928;2024-03-22T03:17:30;11.53;;;6.57;;
5257;SDS011;2651;51.594;9.928;2024-03-22T03:18:31;13.93;;;7.63;;
5257;SDS011;2651;51.594;9.928;2024-03-22T03:19:31;15.97;;;7.60;;
5257;SDS011;2651;51.594;9.928;2024-03-22T03:20:32;15.53;;;7.60;;
5257;SDS011;2651;51.594;9.928;2024-03-22T03:21:33;13.17;;;6.77;;
5257;SDS011;2651;51.594;9.928;2024-03-22T03:22:34;14.60;;;7.70;;
5257;SDS011;2651;51.594;9.928;2024-03-22T03:23:35;15.13;;;7.57;;
5257;SDS011;2651;51.594;9.928;2024-03-22T03:24:36;17.27;;;7.90;;
5257;SDS011;2651;51.594;9.928;2024-03-22T03:25:36;14.10;;;7.57;;
5257;SDS011;2651;51.594;9.928;2024-03-22T03:26:37;16.87;;;8.77;;
5257;SDS011;2651;51.594;9.928;2024-03-22T03:27:38;12.40;;;7.60;;
5257;SDS011;2651;51.594;9.928;2024-03-22T03:28:38;18.23;;;7.13;;
5257;SDS011;2651;51.594;9.928;2024-03-22T03:29:39;14.27;;;7.63;;
5257;SDS011;2651;51.594;9.928;2024-03-22T03:30:40;15.40;;;7.97;;
5257;SDS011;2651;51.594;9.928;2024-03-22T03:31:41;17.80;;;8.00;;
5257;SDS011;2651;51.594;9.928;2024-03-22T03:32:41;17.77;;;8.00;;
5257;SDS011;2651;51.594;9.928;2024-03-22T03:33:42;17.50;;;8.40;;
5257;SDS011;2651;51.594;9.928;2024-03-22T03:34:43;13.37;;;8.20;;
5257;SDS011;2651;51.594;9.928;2024-03-22T03:35:47;16.47;;;8.07;;
5257;SDS011;2651;51.594;9.928;2024-03-22T03:36:47;14.50;;;7.40;;
5257;SDS011;2651;51.594;9.928;2024-03-22T03:37:49;15.63;;;7.40;;
5257;SDS011;2651;51.594;9.928;2024-03-22T03:38:49;15.35;;;7.82;;
5257;SDS011;2651;51.594;9.928;2024-03-22T03:39:50;17.60;;;8.43;;
5257;SDS011;2651;51.594;9.928;2024-03-22T03:40:51;16.30;;;7.90;;
5257;SDS011;2651;51.594;9.928;2024-03-22T03:41:52;19.83;;;8.13;;
5257;SDS011;2651;51.594;9.928;2024-03-22T03:42:52;15.07;;;8.13;;
5257;SDS011;2651;51.594;9.928;2024-03-22T03:43:53;14.73;;;8.10;;
5257;SDS011;2651;51.594;9.928;2024-03-22T03:44:54;16.23;;;8.80;;
5257;SDS011;2651;51.594;9.928;2024-03-22T03:45:55;15.03;;;7.47;;
5257;SDS011;2651;51.594;9.928;2024-03-22T03:46:56;18.87;;;8.40;;
5257;SDS011;2651;51.594;9.928;2024-03-22T03:47:56;22.17;;;8.53;;
5257;SDS011;2651;51.594;9.928;2024-03-22T03:48:57;15.37;;;8.70;;
5257;SDS011;2651;51.594;9.928;2024-03-22T03:49:58;15.30;;;7.97;;
5257;SDS011;2651;51.594;9.928;2024-03-22T03:50:59;18.53;;;8.37;;
5257;SDS011;2651;51.594;9.928;2024-03-22T03:52:03;13.40;;;8.13;;
5257;SDS011;2651;51.594;9.928;2024-03-22T03:53:04;14.37;;;7.47;;
5257;SDS011;2651;51.594;9.928;2024-03-22T03:54:04;21.83;;;9.20;;
5257;SDS011;2651;51.594;9.928;2024-03-22T03:55:06;15.00;;;7.97;;
5257;SDS011;2651;51.594;9.928;2024-03-22T03:56:06;30.37;;;8.17;;
5257;SDS011;2651;51.594;9.928;2024-03-22T03:57:07;22.40;;;8.97;;
5257;SDS011;2651;51.594;9.928;2024-03-22T03:58:08;13.90;;;8.20;;
5257;SDS011;2651;51.594;9.928;2024-03-22T03:59:08;15.23;;;8.40;;
5257;SDS011;2651;51.594;9.928;2024-03-22T04:00:09;21.73;;;9.30;;
5257;SDS011;2651;51.594;9.928;2024-03-22T04:01:10;19.42;;;9.00;;
5257;SDS011;2651;51.594;9.928;2024-03-22T04:02:11;15.50;;;8.50;;
5257;SDS011;2651;51.594;9.928;2024-03-22T04:03:12;15.90;;;7.80;;
5257;SDS011;2651;51.594;9.928;2024-03-22T04:04:13;19.80;;;8.67;;
5257;SDS011;2651;51.594;9.928;2024-03-22T04:05:13;20.13;;;9.60;;
5257;SDS011;2651;51.594;9.928;2024-03-22T04:06:14;16.33;;;8.30;;
5257;SDS011;2651;51.594;9.928;2024-03-22T04:07:15;17.00;;;8.53;;
5257;SDS011;2651;51.594;9.928;2024-03-22T04:08:16;16.10;;;8.90;;
5257;SDS011;2651;51.594;9.928;2024-03-22T04:09:16;13.60;;;7.80;;
5257;SDS011;2651;51.594;9.928;2024-03-22T04:10:17;19.03;;;8.63;;
5257;SDS011;2651;51.594;9.928;2024-03-22T04:11:18;18.70;;;9.20;;
5257;SDS011;2651;51.594;9.928;2024-03-22T04:12:19;14.83;;;8.70;;
5257;SDS011;2651;51.594;9.928;2024-03-22T04:13:19;20.37;;;9.77;;
5257;SDS011;2651;51.594;9.928;2024-03-22T04:14:20;18.97;;;9.07;;
5257;SDS011;2651;51.594;9.928;2024-03-22T04:15:21;18.50;;;9.87;;
5257;SDS011;2651;51.594;9.928;2024-03-22T04:16:21;19.53;;;8.60;;
5257;SDS011;2651;51.594;9.928;2024-03-22T04:17:22;20.00;;;8.63;;
5257;SDS011;2651;51.594;9.928;2024-03-22T04:18:23;21.10;;;9.87;;
5257;SDS011;2651;51.594;9.928;2024-03-22T04:19:24;17.57;;;9.50;;
5257;SDS011;2651;51.594;9.928;2024-03-22T04:20:24;17.10;;;8.27;;
5257;SDS011;2651;51.594;9.928;2024-03-22T04:21:25;17.70;;;9.93;;
5257;SDS011;2651;51.594;9.928;2024-03-22T04:22:26;16.33;;;8.80;;
5257;SDS011;2651;51.594;9.928;2024-03-22T04:23:26;22.53;;;10.40;;
5257;SDS011;2651;51.594;9.928;2024-03-22T04:24:27;19.90;;;10.00;;
5257;SDS011;2651;51.594;9.928;2024-03-22T04:25:28;15.10;;;9.00;;
5257;SDS011;2651;51.594;9.928;2024-03-22T04:26:29;19.60;;;10.10;;
5257;SDS011;2651;51.594;9.928;2024-03-22T04:27:29;18.47;;;8.33;;
5257;SDS011;2651;51.594;9.928;2024-03-22T04:28:30;21.20;;;8.90;;
5257;SDS011;2651;51.594;9.928;2024-03-22T04:29:31;18.73;;;9.67;;
5257;SDS011;2651;51.594;9.928;2024-03-22T04:30:31;24.30;;;10.20;;
5257;SDS011;2651;51.594;9.928;2024-03-22T04:31:32;23.27;;;9.87;;
5257;SDS011;2651;51.594;9.928;2024-03-22T04:32:33;24.00;;;9.67;;
5257;SDS011;2651;51.594;9.928;2024-03-22T04:33:34;18.30;;;9.00;;
5257;SDS011;2651;51.594;9.928;2024-03-22T04:34:35;23.58;;;10.90;;
5257;SDS011;2651;51.594;9.928;2024-03-22T04:35:36;16.07;;;9.20;;
5257;SDS011;2651;51.594;9.928;2024-03-22T04:36:37;18.75;;;9.30;;
5257;SDS011;2651;51.594;9.928;2024-03-22T04:37:38;23.50;;;10.47;;
5257;SDS011;2651;51.594;9.928;2024-03-22T04:38:39;22.60;;;10.93;;
5257;SDS011;2651;51.594;9.928;2024-03-22T04:39:40;21.10;;;10.10;;
5257;SDS011;2651;51.594;9.928;2024-03-22T04:40:41;20.60;;;10.38;;
5257;SDS011;2651;51.594;9.928;2024-03-22T04:41:41;19.13;;;9.30;;
5257;SDS011;2651;51.594;9.928;2024-03-22T04:42:42;21.40;;;10.37;;
5257;SDS011;2651;51.594;9.928;2024-03-22T04:43:43;21.47;;;9.87;;
5257;SDS011;2651;51.594;9.928;2024-03-22T04:44:44;21.37;;;10.53;;
5257;SDS011;2651;51.594;9.928;2024-03-22T04:45:45;23.50;;;11.13;;
5257;SDS011;2651;51.594;9.928;2024-03-22T04:46:46;23.05;;;9.88;;
5257;SDS011;2651;51.594;9.928;2024-03-22T04:47:47;25.70;;;10.43;;
5257;SDS011;2651;51.594;9.928;2024-03-22T04:48:48;21.83;;;10.80;;
5257;SDS011;2651;51.594;9.928;2024-03-22T04:49:49;21.25;;;10.30;;
5257;SDS011;2651;51.594;9.928;2024-03-22T04:50:50;24.87;;;10.33;;
5257;SDS011;2651;51.594;9.928;2024-03-22T04:51:52;21.08;;;10.93;;
5257;SDS011;2651;51.594;9.928;2024-03-22T04:52:52;23.30;;;10.60;;
5257;SDS011;2651;51.594;9.928;2024-03-22T04:53:53;22.57;;;10.43;;
5257;SDS011;2651;51.594;9.928;2024-03-22T04:54:54;21.13;;;11.30;;
5257;SDS011;2651;51.594;9.928;2024-03-22T04:55:54;21.20;;;10.73;;
5257;SDS011;2651;51.594;9.928;2024-03-22T04:56:55;26.90;;;11.40;;
5257;SDS011;2651;51.594;9.928;2024-03-22T04:57:56;23.23;;;9.90;;
5257;SDS011;2651;51.594;9.928;2024-03-22T04:58:57;23.73;;;10.63;;
5257;SDS011;2651;51.594;9.928;2024-03-22T04:59:57;19.47;;;10.30;;
5257;SDS011;2651;51.594;9.928;2024-03-22T05:00:58;22.27;;;9.70;;
5257;SDS011;2651;51.594;9.928;2024-03-22T05:01:59;24.27;;;11.33;;
5257;SDS011;2651;51.594;9.928;2024-03-22T05:03:00;20.83;;;9.63;;
5257;SDS011;2651;51.594;9.928;2024-03-22T05:04:00;22.10;;;11.13;;
5257;SDS011;2651;51.594;9.928;2024-03-22T05:05:01;24.00;;;10.80;;
5257;SDS011;2651;51.594;9.928;2024-03-22T05:06:02;21.57;;;9.37;;
5257;SDS011;2651;51.594;9.928;2024-03-22T05:07:03;21.13;;;10.18;;
5257;SDS011;2651;51.594;9.928;2024-03-22T05:08:04;22.07;;;10.77;;
5257;SDS011;2651;51.594;9.928;2024-03-22T05:09:06;20.00;;;10.30;;
5257;SDS011;2651;51.594;9.928;2024-03-22T05:10:10;19.98;;;10.57;;
5257;SDS011;2651;51.594;9.928;2024-03-22T05:11:11;20.15;;;10.60;;
5257;SDS011;2651;51.594;9.928;2024-03-22T05:12:12;27.43;;;12.20;;
5257;SDS011;2651;51.594;9.928;2024-03-22T05:13:13;21.63;;;10.40;;
5257;SDS011;2651;51.594;9.928;2024-03-22T05:14:14;23.53;;;10.93;;
5257;SDS011;2651;51.594;9.928;2024-03-22T05:15:14;18.70;;;10.53;;
5257;SDS011;2651;51.594;9.928;2024-03-22T05:16:15;24.27;;;11.30;;
5257;SDS011;2651;51.594;9.928;2024-03-22T05:17:16;27.20;;;10.80;;
5257;SDS011;2651;51.594;9.928;2024-03-22T05:18:16;24.50;;;11.53;;
5257;SDS011;2651;51.594;9.928;2024-03-22T05:19:17;27.27;;;10.10;;
5257;SDS011;2651;51.594;9.928;2024-03-22T05:20:19;22.58;;;11.55;;
5257;SDS011;2651;51.594;9.928;2024-03-22T05:21:20;21.15;;;9.25;;
5257;SDS011;2651;51.594;9.928;2024-03-22T05:22:21;22.10;;;10.10;;
5257;SDS011;2651;51.594;9.928;2024-03-22T05:23:22;20.60;;;10.85;;
5257;SDS011;2651;51.594;9.928;2024-03-22T05:24:23;26.37;;;11.67;;
5257;SDS011;2651;51.594;9.928;2024-03-22T05:25:23;21.50;;;10.30;;
5257;SDS011;2651;51.594;9.928;2024-03-22T05:26:24;21.87;;;10.73;;
5257;SDS011;2651;51.594;9.928;2024-03-22T05:27:25;29.87;;;11.87;;
5257;SDS011;2651;51.594;9.928;2024-03-22T05:28:26;21.80;;;10.20;;
5257;SDS011;2651;51.594;9.928;2024-03-22T05:29:26;19.90;;;10.30;;
5257;SDS011;2651;51.594;9.928;2024-03-22T05:30:27;20.37;;;10.20;;
5257;SDS011;2651;51.594;9.928;2024-03-22T05:31:28;21.00;;;9.60;;
5257;SDS011;2651;51.594;9.928;2024-03-22T05:32:29;27.23;;;11.35;;
5257;SDS011;2651;51.594;9.928;2024-03-22T05:33:30;23.40;;;9.50;;
5257;SDS011;2651;51.594;9.928;2024-03-22T05:34:32;25.23;;;12.18;;
5257;SDS011;2651;51.594;9.928;2024-03-22T05:35:33;30.50;;;11.67;;
5257;SDS011;2651;51.594;9.928;2024-03-22T05:36:33;24.20;;;10.97;;
5257;SDS011;2651;51.594;9.928;2024-03-22T05:37:34;25.87;;;11.07;;
5257;SDS011;2651;51.594;9.928;2024-03-22T05:38:35;19.73;;;10.32;;
5257;SDS011;2651;51.594;9.928;2024-03-22T05:39:36;22.63;;;10.80;;
5257;SDS011;2651;51.594;9.928;2024-03-22T05:40:37;22.20;;;10.80;;
5257;SDS011;2651;51.594;9.928;2024-03-22T05:41:40;29.75;;;11.40;;
5257;SDS011;2651;51.594;9.928;2024-03-22T05:42:41;30.33;;;11.97;;
5257;SDS011;2651;51.594;9.928;2024-03-22T05:43:42;31.43;;;11.17;;
5257;SDS011;2651;51.594;9.928;2024-03-22T05:44:43;24.97;;;10.20;;
5257;SDS011;2651;51.594;9.928;2024-03-22T05:45:45;28.50;;;11.82;;
5257;SDS011;2651;51.594;9.928;2024-03-22T05:46:45;19.23;;;10.23;;
5257;SDS011;2651;51.594;9.928;2024-03-22T05:47:46;28.17;;;11.10;;
5257;SDS011;2651;51.594;9.928;2024-03-22T05:48:47;27.73;;;12.33;;
5257;SDS011;2651;51.594;9.928;2024-03-22T05:49:49;26.95;;;12.38;;
5257;SDS011;2651;51.594;9.928;2024-03-22T05:50:51;24.77;;;12.20;;
5257;SDS011;2651;51.594;9.928;2024-03-22T05:51:53;24.30;;;10.23;;
5257;SDS011;2651;51.594;9.928;2024-03-22T05:52:53;22.80;;;11.33;;
5257;SDS011;2651;51.594;9.928;2024-03-22T05:53:54;26.17;;;11.20;;
5257;SDS011;2651;51.594;9.928;2024-03-22T05:54:55;21.00;;;9.60;;
5257;SDS011;2651;51.594;9.928;2024-03-22T05:55:55;28.13;;;12.00;;
5257;SDS011;2651;51.594;9.928;2024-03-22T05:56:56;25.83;;;11.10;;
5257;SDS011;2651;51.594;9.928;2024-03-22T05:57:57;24.20;;;11.00;;
5257;SDS011;2651;51.594;9.928;2024-03-22T05:58:58;24.20;;;11.57;;
5257;SDS011;2651;51.594;9.928;2024-03-22T05:59:59;29.65;;;11.68;;
5257;SDS011;2651;51.594;9.928;2024-03-22T06:01:00;24.50;;;10.83;;
5257;SDS011;2651;51.594;9.928;2024-03-22T06:02:01;23.80;;;10.97;;
5257;SDS011;2651;51.594;9.928;2024-03-22T06:03:01;22.30;;;11.37;;
5257;SDS011;2651;51.594;9.928;2024-03-22T06:04:02;19.63;;;10.93;;
5257;SDS011;2651;51.594;9.928;2024-03-22T06:05:03;33.30;;;12.10;;
5257;SDS011;2651;51.594;9.928;2024-03-22T06:06:04;31.65;;;12.35;;
5257;SDS011;2651;51.594;9.928;2024-03-22T06:07:05;26.77;;;12.17;;
5257;SDS011;2651;51.594;9.928;2024-03-22T06:08:06;25.13;;;11.35;;
5257;SDS011;2651;51.594;9.928;2024-03-22T06:09:08;23.80;;;10.20;;
5257;SDS011;2651;51.594;9.928;2024-03-22T06:10:13;25.48;;;11.60;;
5257;SDS011;2651;51.594;9.928;2024-03-22T06:11:14;24.38;;;11.90;;
5257;SDS011;2651;51.594;9.928;2024-03-22T06:12:15;27.37;;;11.50;;
5257;SDS011;2651;51.594;9.928;2024-03-22T06:13:16;23.38;;;11.15;;